createdAt,value
2023-02-11T00:03:53.932Z,54.40
2023-02-11T00:08:57.029Z,50.57
2023-02-11T00:14:02.262Z,54.63
2023-02-11T00:19:06.698Z,49.87
2023-02-11T00:24:09.127Z,56.07
2023-02-11T00:29:11.563Z,54.90
2023-02-11T00:34:16.121Z,54.97
2023-02-11T00:39:18.977Z,52.03
2023-02-11T00:44:21.495Z,48.23
2023-02-11T00:49:25.331Z,50.60
2023-02-11T00:54:29.956Z,50.40
2023-02-11T00:59:32.554Z,58.10
2023-02-11T01:04:37.024Z,55.20
2023-02-11T01:09:39.387Z,53.03
2023-02-11T01:14:42.109Z,54.50
2023-02-11T01:19:44.637Z,93.30
2023-02-11T01:24:47.041Z,54.00
2023-02-11T01:29:49.384Z,52.60
2023-02-11T01:34:51.795Z,60.57
2023-02-11T01:39:54.581Z,61.37
2023-02-11T01:44:57.916Z,67.67
2023-02-11T01:50:02.151Z,60.23
2023-02-11T01:55:27.115Z,56.63
2023-02-11T02:00:40.411Z,49.27
2023-02-11T02:05:45.776Z,62.20
2023-02-11T02:10:54.665Z,55.43
2023-02-11T02:16:00.004Z,51.07
2023-02-11T02:21:29.657Z,54.30
2023-02-11T02:27:09.563Z,52.83
2023-02-11T02:32:30.550Z,59.23
2023-02-11T02:37:51.854Z,55.23
2023-02-11T02:42:56.292Z,55.10
2023-02-11T02:47:58.892Z,52.80
2023-02-11T02:53:24.536Z,54.70
2023-02-11T02:58:52.519Z,59.30
2023-02-11T03:04:27.767Z,57.77
2023-02-11T03:09:56.495Z,51.23
2023-02-11T03:15:01.404Z,59.00
2023-02-11T03:20:06.377Z,58.17
2023-02-11T03:25:09.657Z,51.80
2023-02-11T03:30:26.396Z,59.03
2023-02-11T03:36:07.744Z,52.57
2023-02-11T03:41:11.322Z,50.70
2023-02-11T03:46:18.190Z,53.13
2023-02-11T03:51:22.455Z,51.60
2023-02-11T03:56:29.133Z,54.83
2023-02-11T04:01:31.558Z,58.03
2023-02-11T04:06:34.110Z,53.47
2023-02-11T04:11:36.645Z,58.20
2023-02-11T04:16:39.126Z,55.47
2023-02-11T04:21:41.545Z,55.13
2023-02-11T04:26:43.911Z,58.83
2023-02-11T04:31:46.932Z,62.83
2023-02-11T04:36:49.505Z,70.13
2023-02-11T04:41:51.938Z,63.63
2023-02-11T04:46:54.895Z,62.77
2023-02-11T04:51:57.277Z,66.57
2023-02-11T04:56:59.731Z,71.17
2023-02-11T05:02:02.294Z,62.47
2023-02-11T05:07:04.709Z,59.80
2023-02-11T05:12:07.249Z,61.67
2023-02-11T05:17:09.633Z,64.13
2023-02-11T05:22:12.104Z,69.43
2023-02-11T05:27:14.545Z,71.87
2023-02-11T05:32:17.172Z,67.80
2023-02-11T05:37:19.720Z,64.13
2023-02-11T05:42:22.199Z,69.47
2023-02-11T05:47:24.996Z,71.70
2023-02-11T05:52:27.523Z,68.93
2023-02-11T05:57:29.945Z,76.73
2023-02-11T06:02:32.414Z,71.03
2023-02-11T06:07:34.814Z,76.10
2023-02-11T06:12:37.903Z,79.53
2023-02-11T06:17:40.396Z,73.80
2023-02-11T06:22:42.902Z,72.50
2023-02-11T06:27:45.402Z,73.27
2023-02-11T06:32:48.069Z,82.27
2023-02-11T06:37:50.607Z,82.37
2023-02-11T06:42:53.337Z,74.20
2023-02-11T06:47:56.236Z,80.27
2023-02-11T06:53:02.033Z,85.53
2023-02-11T06:58:04.619Z,86.13
2023-02-11T07:03:06.956Z,85.03
2023-02-11T07:08:09.478Z,89.73
2023-02-11T07:13:11.825Z,85.27
2023-02-11T07:18:14.857Z,87.60
2023-02-11T07:23:17.394Z,89.63
2023-02-11T07:28:20.030Z,95.13
2023-02-11T07:33:22.435Z,111.83
2023-02-11T07:38:24.853Z,114.30
2023-02-11T07:43:27.878Z,123.67
2023-02-11T07:48:30.681Z,159.10
2023-02-11T07:53:33.125Z,109.30
2023-02-11T07:58:35.891Z,104.63
2023-02-11T08:03:39.485Z,92.43
2023-02-11T08:08:42.283Z,146.43
2023-02-11T08:13:45.302Z,283.10
2023-02-11T08:18:48.339Z,102.87
2023-02-11T08:23:50.874Z,85.83
2023-02-11T08:28:56.505Z,87.27
2023-02-11T08:33:59.150Z,91.80
2023-02-11T08:39:18.090Z,88.87
2023-02-11T08:44:22.708Z,163.57
2023-02-11T08:49:25.267Z,106.73
2023-02-11T08:54:27.813Z,90.73
2023-02-11T08:59:30.792Z,108.13
2023-02-11T09:04:33.189Z,97.07
2023-02-11T09:09:35.673Z,85.47
2023-02-11T09:14:38.613Z,87.67
2023-02-11T09:19:41.101Z,116.33
2023-02-11T09:24:43.557Z,87.60
2023-02-11T09:29:45.938Z,100.63
2023-02-11T09:34:48.423Z,93.53
2023-02-11T09:39:50.894Z,94.03
2023-02-11T09:44:53.750Z,93.37
2023-02-11T09:50:04.673Z,388.27
2023-02-11T09:55:18.754Z,223.97
2023-02-11T10:00:23.065Z,142.93
2023-02-11T10:05:41.550Z,110.90
2023-02-11T10:10:59.200Z,123.83
2023-02-11T10:16:28.093Z,98.60
2023-02-11T10:21:46.670Z,87.53
2023-02-11T10:26:49.651Z,95.37
2023-02-11T10:31:54.189Z,82.17
2023-02-11T10:36:57.723Z,134.53
2023-02-11T10:42:05.149Z,299.47
2023-02-11T10:47:27.156Z,90.93
2023-02-11T10:52:30.957Z,83.57
2023-02-11T10:57:44.531Z,88.10
2023-02-11T11:02:54.292Z,81.63
2023-02-11T11:08:00.129Z,89.00
2023-02-11T11:13:03.365Z,78.90
2023-02-11T11:18:22.322Z,556.73
2023-02-11T11:23:26.064Z,350.67
2023-02-11T11:28:31.480Z,110.47
2023-02-11T11:33:36.536Z,125.70
2023-02-11T11:38:55.715Z,89.77
2023-02-11T11:44:04.697Z,80.60
2023-02-11T11:49:31.000Z,73.73
2023-02-11T11:54:35.055Z,75.83
2023-02-11T11:59:38.302Z,124.20
2023-02-11T12:04:55.200Z,84.37
2023-02-11T12:09:57.632Z,106.37
2023-02-11T12:15:33.247Z,127.23
2023-02-11T12:21:03.109Z,99.87
2023-02-11T12:26:19.623Z,112.57
2023-02-11T12:31:22.218Z,86.23
2023-02-11T12:36:57.145Z,74.90
2023-02-11T12:42:36.496Z,122.23
2023-02-11T12:48:02.105Z,92.70
2023-02-11T12:53:30.872Z,89.60
2023-02-11T12:58:44.980Z,85.00
2023-02-11T13:04:00.064Z,102.83
2023-02-11T13:09:05.927Z,89.73
2023-02-11T13:14:30.750Z,104.43
2023-02-11T13:19:35.158Z,110.60
2023-02-11T13:25:06.214Z,97.10
2023-02-11T13:30:32.428Z,88.00
2023-02-11T13:35:41.150Z,81.33
2023-02-11T13:40:44.385Z,99.60
2023-02-11T13:45:48.972Z,90.03
2023-02-11T13:50:55.747Z,75.97
2023-02-11T13:56:12.133Z,94.60
2023-02-11T14:01:40.908Z,144.10
2023-02-11T14:08:00.273Z,182.67
2023-02-11T14:13:27.066Z,162.13
2023-02-11T14:18:44.388Z,437.97
2023-02-11T14:23:47.202Z,374.63
2023-02-11T14:29:14.138Z,158.93
2023-02-11T14:34:29.913Z,170.67
2023-02-11T14:39:37.934Z,160.60
2023-02-11T14:44:41.625Z,104.13
2023-02-11T14:49:45.097Z,102.93
2023-02-11T14:54:50.865Z,125.73
2023-02-11T14:59:59.241Z,202.17
2023-02-11T15:05:17.550Z,139.00
2023-02-11T15:10:41.813Z,137.90
2023-02-11T15:15:46.735Z,185.07
2023-02-11T15:20:50.628Z,146.90
2023-02-11T15:25:56.058Z,114.40
2023-02-11T15:30:58.569Z,139.57
2023-02-11T15:36:02.427Z,136.70
2023-02-11T15:41:07.569Z,126.47
2023-02-11T15:46:13.235Z,89.60
2023-02-11T15:51:36.441Z,123.37
2023-02-11T15:56:51.089Z,120.83
2023-02-11T16:01:54.795Z,124.77
2023-02-11T16:06:57.817Z,102.27
2023-02-11T16:12:21.160Z,93.30
2023-02-11T16:17:27.492Z,226.13
2023-02-11T16:22:35.437Z,435.53
2023-02-11T16:27:42.001Z,157.60
2023-02-11T16:32:44.403Z,209.43
2023-02-11T16:37:46.826Z,96.43
2023-02-11T16:42:49.716Z,175.43
2023-02-11T16:47:52.464Z,82.83
2023-02-11T16:52:55.206Z,108.27
2023-02-11T16:57:57.738Z,76.20
2023-02-11T17:03:00.156Z,87.67
2023-02-11T17:08:04.137Z,118.47
2023-02-11T17:13:06.759Z,123.60
2023-02-11T17:18:12.919Z,328.30
2023-02-11T17:23:15.574Z,372.83
2023-02-11T17:28:18.054Z,243.93
2023-02-11T17:33:20.615Z,94.27
2023-02-11T17:38:22.984Z,152.83
2023-02-11T17:43:25.506Z,146.53
2023-02-11T17:48:51.737Z,499.30
2023-02-11T17:53:54.517Z,291.53
2023-02-11T17:58:56.964Z,458.93
2023-02-11T18:03:59.830Z,462.80
2023-02-11T18:09:04.606Z,159.50
2023-02-11T18:14:08.532Z,482.40
2023-02-11T18:19:11.862Z,89.83
2023-02-11T18:24:14.593Z,85.40
2023-02-11T18:29:17.055Z,82.80
2023-02-11T18:34:19.511Z,79.57
2023-02-11T18:39:24.313Z,72.43
2023-02-11T18:44:27.603Z,47.60
2023-02-11T18:49:30.045Z,165.80
2023-02-11T18:54:32.481Z,555.93
2023-02-11T18:59:35.077Z,680.63
2023-02-11T19:04:37.569Z,284.40
2023-02-11T19:09:40.394Z,60.87
2023-02-11T19:14:42.822Z,71.37
2023-02-11T19:19:45.229Z,138.50
2023-02-11T19:24:47.686Z,80.43
2023-02-11T19:29:50.124Z,36.40
2023-02-11T19:34:53.207Z,36.27
2023-02-11T19:39:55.697Z,33.73
2023-02-11T19:44:58.123Z,46.47
2023-02-11T19:50:00.495Z,76.80
2023-02-11T19:55:02.900Z,59.97
2023-02-11T20:00:06.164Z,62.90
2023-02-11T20:05:14.180Z,92.93
2023-02-11T20:10:17.059Z,89.77
2023-02-11T20:15:19.486Z,49.90
2023-02-11T20:20:21.953Z,60.70
2023-02-11T20:25:24.584Z,80.93
2023-02-11T20:30:26.967Z,137.60
2023-02-11T20:35:29.348Z,60.57
2023-02-11T20:40:33.092Z,35.23
2023-02-11T20:45:35.684Z,30.23
2023-02-11T20:50:38.524Z,28.60
2023-02-11T20:55:40.936Z,21.17
2023-02-11T21:00:43.354Z,22.97
2023-02-11T21:05:45.723Z,27.97
2023-02-11T21:10:48.852Z,35.23
2023-02-11T21:15:58.497Z,24.20
2023-02-11T21:21:01.326Z,25.13
2023-02-11T21:26:03.815Z,28.87
2023-02-11T21:31:06.755Z,21.03
2023-02-11T21:36:10.607Z,28.67
2023-02-11T21:41:13.154Z,25.90
2023-02-11T21:46:17.543Z,24.33
2023-02-11T21:51:25.122Z,26.23
2023-02-11T21:56:29.664Z,30.37
2023-02-11T22:01:35.584Z,23.93
2023-02-11T22:06:38.842Z,27.77
2023-02-11T22:11:41.242Z,24.40
2023-02-11T22:16:45.874Z,26.63
2023-02-11T22:21:48.378Z,29.20
2023-02-11T22:26:50.843Z,26.33
2023-02-11T22:31:53.320Z,31.03
2023-02-11T22:36:55.717Z,26.33
2023-02-11T22:41:58.215Z,24.90
2023-02-11T22:47:00.611Z,27.53
2023-02-11T22:52:03.623Z,26.70
2023-02-11T22:57:06.036Z,29.43
2023-02-11T23:02:08.540Z,24.13
2023-02-11T23:07:11.125Z,26.33
2023-02-11T23:12:13.838Z,29.67
2023-02-11T23:17:16.457Z,29.73
2023-02-11T23:22:18.809Z,26.80
2023-02-11T23:27:21.225Z,27.60
2023-02-11T23:32:23.916Z,23.70
2023-02-11T23:37:26.327Z,28.00
2023-02-11T23:42:29.248Z,24.30
2023-02-11T23:47:31.663Z,22.07
2023-02-11T23:52:34.114Z,24.43
2023-02-11T23:57:37.324Z,25.10
